General Aviation Weather

Text Reports

Enter one or more of the following location identifiers separated by a space:

Zip Code, Four-Character ICAO or Three-Character IATA airport codes.

METAR - Aviation Routine Weather Report
KHSB - Harrisburg, Illinois
Updated at 9:35 PM GMT on October 01, 2014 (4:35 PM CDT):
METAR KHSB 302135Z AUTO 28003KT 10SM CLR 29/12 A2989 RMK AO2 T02870123
TAF - Terminal Area Forecast
KHSB - Harrisburg, Illinois
Updated at 9:35 PM GMT on October 01, 2014 (4:35 PM CDT):
No TAF is currently available for this location.
Decoded:
No decoded TAF is available.
PIREP - Pilot Weather Report
KHSB - Harrisburg, Illinois
Updated at 9:35 PM GMT on October 01, 2014 (4:35 PM CDT):
No PIREP is currently available for this location.
AIRMET - Airmens Meteorological Information
KHSB - Harrisburg, Illinois
Updated at 9:35 PM GMT on October 01, 2014 (4:35 PM CDT):
No AIRMET is currently available for this location.
SIGMET - Significant Meteorological Information
KHSB - Harrisburg, Illinois
Updated at 9:35 PM GMT on October 01, 2014 (4:35 PM CDT):
No SIGMET is currently available for this location.
NOTAM - Notice to Airmen
KHSB - Harrisburg, Illinois
Updated at 9:35 PM GMT on October 01, 2014 (4:35 PM CDT):
No NOTAM is currently available for this location.
Forecast Area
KHSB - Harrisburg, Illinois
Updated at 9:35 PM GMT on October 01, 2014 (4:35 PM CDT):
No NOTAM is currently available for this location.
Aviation Weather Maps